createdAt,value
2019-02-04T00:01:53.369Z,6.53
2019-02-04T00:04:23.901Z,6.53
2019-02-04T00:06:54.371Z,6.37
2019-02-04T00:09:24.809Z,6.67
2019-02-04T00:11:56.322Z,6.43
2019-02-04T00:14:26.784Z,6.63
2019-02-04T00:16:57.224Z,6.07
2019-02-04T00:19:27.695Z,6.37
2019-02-04T00:21:58.154Z,6.40
2019-02-04T00:24:29.348Z,6.40
2019-02-04T00:26:59.783Z,6.33
2019-02-04T00:29:30.550Z,6.37
2019-02-04T00:32:01.031Z,6.93
2019-02-04T00:34:31.784Z,6.30
2019-02-04T00:37:02.258Z,6.83
2019-02-04T00:39:33.063Z,7.00
2019-02-04T00:42:03.893Z,7.17
2019-02-04T00:44:34.359Z,6.87
2019-02-04T00:47:05.093Z,7.20
2019-02-04T00:49:35.897Z,6.53
2019-02-04T00:52:06.437Z,7.00
2019-02-04T00:54:36.875Z,6.70
2019-02-04T00:57:07.701Z,6.90
2019-02-04T00:59:38.148Z,7.10
2019-02-04T01:02:08.725Z,6.43
2019-02-04T01:04:39.451Z,6.50
2019-02-04T01:07:10.072Z,6.23
2019-02-04T01:09:40.544Z,6.80
2019-02-04T01:12:10.985Z,6.50
2019-02-04T01:14:41.513Z,6.40
2019-02-04T01:17:12.335Z,7.47
2019-02-04T01:19:43.103Z,6.33
2019-02-04T01:22:13.575Z,6.90
2019-02-04T01:24:48.095Z,6.30
2019-02-04T01:27:17.682Z,6.77
2019-02-04T01:29:48.590Z,6.50
2019-02-04T01:32:19.026Z,6.40
2019-02-04T01:34:49.807Z,7.17
2019-02-04T01:37:20.248Z,6.70
2019-02-04T01:39:50.741Z,7.17
2019-02-04T01:42:21.675Z,5.83
2019-02-04T01:44:52.115Z,7.07
2019-02-04T01:47:23.562Z,7.00
2019-02-04T01:49:54.007Z,6.93
2019-02-04T01:52:24.498Z,6.53
2019-02-04T01:54:55.317Z,6.77
2019-02-04T01:57:25.763Z,6.27
2019-02-04T01:59:56.247Z,6.90
2019-02-04T02:02:26.693Z,6.40
2019-02-04T02:04:57.178Z,7.43
2019-02-04T02:07:27.623Z,6.93
2019-02-04T02:09:58.079Z,7.10
2019-02-04T02:12:28.905Z,6.70
2019-02-04T02:15:00.288Z,7.70
2019-02-04T02:17:30.790Z,7.10
2019-02-04T02:20:01.234Z,8.10
2019-02-04T02:22:32.443Z,7.63
2019-02-04T02:25:02.912Z,7.53
2019-02-04T02:27:33.625Z,8.80
2019-02-04T02:30:05.471Z,7.97
2019-02-04T02:32:35.959Z,7.97
2019-02-04T02:35:07.608Z,8.63
2019-02-04T02:37:38.205Z,7.60
2019-02-04T02:40:12.798Z,6.73
2019-02-04T02:42:43.288Z,7.47
2019-02-04T02:45:13.728Z,8.93
2019-02-04T02:47:44.171Z,8.47
2019-02-04T02:50:14.970Z,9.63
2019-02-04T02:52:45.565Z,7.90
2019-02-04T02:55:16.621Z,8.40
2019-02-04T02:57:47.265Z,7.77
2019-02-04T03:00:20.750Z,8.73
2019-02-04T03:02:52.012Z,8.30
2019-02-04T03:05:22.533Z,8.70
2019-02-04T03:07:53.682Z,8.47
2019-02-04T03:10:28.820Z,7.07
2019-02-04T03:12:59.306Z,8.07
2019-02-04T03:15:31.415Z,7.70
2019-02-04T03:18:01.854Z,7.57
2019-02-04T03:20:33.525Z,8.03
2019-02-04T03:23:04.558Z,8.20
2019-02-04T03:25:35.048Z,9.33
2019-02-04T03:28:05.591Z,9.70
2019-02-04T03:30:36.074Z,9.03
2019-02-04T03:33:06.544Z,9.03
2019-02-04T03:35:36.982Z,9.80
2019-02-04T03:38:07.482Z,10.20
2019-02-04T03:40:37.933Z,11.80
2019-02-04T03:43:08.382Z,11.13
2019-02-04T03:45:39.016Z,10.60
2019-02-04T03:48:09.804Z,11.27
2019-02-04T03:50:40.240Z,10.40
2019-02-04T03:53:10.688Z,11.57
2019-02-04T03:55:41.180Z,11.67
2019-02-04T03:58:11.632Z,11.17
2019-02-04T04:00:42.088Z,11.00
2019-02-04T04:03:13.707Z,10.43
2019-02-04T04:05:44.155Z,11.80
2019-02-04T04:08:14.644Z,11.17
2019-02-04T04:10:45.092Z,11.90
2019-02-04T04:13:15.539Z,10.97
2019-02-04T04:15:46.442Z,13.07
2019-02-04T04:18:16.883Z,12.97
2019-02-04T04:20:47.333Z,14.50
2019-02-04T04:23:17.821Z,15.07
2019-02-04T04:25:48.272Z,14.40
2019-02-04T04:28:18.768Z,17.27
2019-02-04T04:30:49.276Z,16.00
2019-02-04T04:33:19.725Z,16.63
2019-02-04T04:35:50.495Z,16.63
2019-02-04T04:38:20.985Z,15.20
2019-02-04T04:40:51.436Z,14.63
2019-02-04T04:43:21.882Z,19.33
2019-02-04T04:45:52.389Z,16.17
2019-02-04T04:48:26.768Z,16.93
2019-02-04T04:50:54.984Z,16.17
2019-02-04T04:53:25.479Z,13.80
2019-02-04T04:55:55.927Z,14.50
2019-02-04T04:58:26.392Z,15.23
2019-02-04T05:00:56.898Z,15.00
2019-02-04T05:03:27.350Z,16.30
2019-02-04T05:05:58.111Z,15.30
2019-02-04T05:08:28.995Z,16.27
2019-02-04T05:10:59.448Z,15.37
2019-02-04T05:13:30.052Z,14.07
2019-02-04T05:16:00.829Z,15.03
2019-02-04T05:18:38.121Z,14.00
2019-02-04T05:21:03.907Z,16.47
2019-02-04T05:23:34.414Z,14.53
2019-02-04T05:26:04.964Z,14.50
2019-02-04T05:28:35.420Z,14.47
2019-02-04T05:31:06.072Z,14.17
2019-02-04T05:33:37.277Z,14.70
2019-02-04T05:36:07.723Z,14.20
2019-02-04T05:38:38.220Z,13.87
2019-02-04T05:41:08.665Z,14.53
2019-02-04T05:43:39.402Z,15.30
2019-02-04T05:46:09.898Z,15.40
2019-02-04T05:48:49.109Z,14.60
2019-02-04T05:51:13.218Z,15.10
2019-02-04T05:53:43.778Z,14.40
2019-02-04T05:56:14.228Z,13.90
2019-02-04T05:58:44.749Z,15.90
2019-02-04T06:01:15.243Z,15.00
2019-02-04T06:03:45.688Z,15.50
2019-02-04T06:06:16.141Z,15.87
2019-02-04T06:08:46.641Z,13.83
2019-02-04T06:11:17.180Z,15.63
2019-02-04T06:13:47.970Z,14.60
2019-02-04T06:16:18.888Z,16.20
2019-02-04T06:19:00.123Z,17.07
2019-02-04T06:21:21.487Z,14.27
2019-02-04T06:23:52.009Z,15.67
2019-02-04T06:26:23.427Z,16.80
2019-02-04T06:28:53.904Z,15.50
2019-02-04T06:31:24.396Z,17.60
2019-02-04T06:33:54.845Z,16.83
2019-02-04T06:36:25.762Z,16.07
2019-02-04T06:38:57.010Z,16.37
2019-02-04T06:41:27.524Z,16.43
2019-02-04T06:43:58.041Z,16.77
2019-02-04T06:46:29.271Z,17.30
2019-02-04T06:48:59.751Z,17.13
2019-02-04T06:51:30.422Z,17.30
2019-02-04T06:54:01.212Z,16.40
2019-02-04T06:56:31.963Z,17.17
2019-02-04T06:59:02.435Z,17.77
2019-02-04T07:01:32.913Z,16.33
2019-02-04T07:04:03.365Z,18.80
2019-02-04T07:06:35.115Z,16.80
2019-02-04T07:09:09.829Z,17.17
2019-02-04T07:11:40.347Z,16.23
2019-02-04T07:14:10.789Z,17.27
2019-02-04T07:16:41.307Z,15.97
2019-02-04T07:19:23.486Z,16.87
2019-02-04T07:21:43.894Z,17.50
2019-02-04T07:24:14.451Z,16.77
2019-02-04T07:26:44.908Z,16.03
2019-02-04T07:29:15.348Z,17.17
2019-02-04T07:31:46.120Z,17.27
2019-02-04T07:34:16.577Z,17.70
2019-02-04T07:36:47.093Z,16.83
2019-02-04T07:39:17.583Z,17.77
2019-02-04T07:41:48.135Z,16.97
2019-02-04T07:44:18.647Z,15.67
2019-02-04T07:46:49.529Z,17.30
2019-02-04T07:49:19.951Z,17.03
2019-02-04T07:51:50.577Z,16.63
2019-02-04T07:54:21.671Z,15.77
2019-02-04T07:56:52.110Z,17.73
2019-02-04T07:59:22.579Z,16.40
2019-02-04T08:01:53.370Z,15.53
2019-02-04T08:04:23.986Z,17.43
2019-02-04T08:06:54.433Z,14.47
2019-02-04T08:09:24.939Z,14.50
2019-02-04T08:11:55.755Z,15.50
2019-02-04T08:14:26.490Z,16.57
2019-02-04T08:16:57.421Z,16.00
2019-02-04T08:19:27.903Z,16.37
2019-02-04T08:21:58.750Z,15.27
2019-02-04T08:24:29.744Z,14.30
2019-02-04T08:27:00.159Z,15.27
2019-02-04T08:29:30.963Z,14.90
2019-02-04T08:32:01.479Z,13.93
2019-02-04T08:34:31.959Z,15.37
2019-02-04T08:37:03.467Z,15.00
2019-02-04T08:39:33.972Z,15.37
2019-02-04T08:42:04.514Z,14.60
2019-02-04T08:44:34.963Z,15.20
2019-02-04T08:47:05.490Z,14.53
2019-02-04T08:49:35.937Z,15.50
2019-02-04T08:52:06.766Z,15.23
2019-02-04T08:54:37.255Z,14.23
2019-02-04T08:57:07.700Z,14.20
2019-02-04T08:59:38.507Z,15.10
2019-02-04T09:02:09.409Z,15.03
2019-02-04T09:04:39.877Z,14.63
2019-02-04T09:07:10.595Z,15.90
2019-02-04T09:09:41.078Z,14.87
2019-02-04T09:12:11.693Z,14.93
2019-02-04T09:14:42.139Z,14.90
2019-02-04T09:17:12.653Z,14.27
2019-02-04T09:19:43.090Z,15.50
2019-02-04T09:22:13.534Z,15.17
2019-02-04T09:24:44.023Z,14.40
2019-02-04T09:27:14.462Z,15.00
2019-02-04T09:29:44.910Z,14.10
2019-02-04T09:32:15.399Z,13.73
2019-02-04T09:34:46.586Z,16.13
2019-02-04T09:37:17.030Z,15.97
2019-02-04T09:39:47.516Z,14.97
2019-02-04T09:42:18.337Z,14.63
2019-02-04T09:44:49.120Z,13.80
2019-02-04T09:47:19.910Z,14.00
2019-02-04T09:49:51.253Z,14.80
2019-02-04T09:52:21.699Z,14.50
2019-02-04T09:54:52.192Z,14.23
2019-02-04T09:57:22.635Z,15.17
2019-02-04T09:59:53.168Z,14.33
2019-02-04T10:02:23.949Z,14.90
2019-02-04T10:04:54.398Z,16.13
2019-02-04T10:07:24.855Z,15.73
2019-02-04T10:09:55.326Z,16.57
2019-02-04T10:12:25.770Z,16.07
2019-02-04T10:14:57.031Z,14.17
2019-02-04T10:17:27.511Z,16.00
2019-02-04T10:19:57.954Z,16.40
2019-02-04T10:22:28.835Z,16.20
2019-02-04T10:24:59.323Z,15.47
2019-02-04T10:27:30.108Z,16.27
2019-02-04T10:30:00.920Z,16.83
2019-02-04T10:32:31.988Z,16.70
2019-02-04T10:35:02.709Z,16.47
2019-02-04T10:37:33.296Z,17.17
2019-02-04T10:40:04.057Z,16.63
2019-02-04T10:42:34.529Z,18.93
2019-02-04T10:45:05.629Z,17.37
2019-02-04T10:47:36.471Z,17.50
2019-02-04T10:50:09.991Z,16.90
2019-02-04T10:52:40.568Z,17.13
2019-02-04T10:55:12.175Z,18.30
2019-02-04T10:57:42.717Z,18.50
2019-02-04T11:00:15.814Z,17.60
2019-02-04T11:02:46.658Z,16.97
2019-02-04T11:05:20.363Z,16.57
2019-02-04T11:07:50.991Z,17.90
2019-02-04T11:10:23.568Z,17.60
2019-02-04T11:12:54.453Z,17.50
2019-02-04T11:15:25.827Z,17.20
2019-02-04T11:17:56.537Z,17.67
2019-02-04T11:20:28.362Z,18.50
2019-02-04T11:22:59.196Z,16.87
2019-02-04T11:25:29.600Z,17.13
2019-02-04T11:28:00.127Z,17.43
2019-02-04T11:30:51.335Z,16.27
2019-02-04T11:33:22.043Z,17.20
2019-02-04T11:35:52.985Z,16.87
2019-02-04T11:38:23.506Z,16.93
2019-02-04T11:40:54.433Z,17.07
2019-02-04T11:43:25.084Z,16.43
2019-02-04T11:45:55.741Z,16.90
2019-02-04T11:48:26.322Z,16.97
2019-02-04T11:50:56.791Z,17.03
2019-02-04T11:53:33.027Z,16.83
2019-02-04T11:55:59.427Z,16.93
2019-02-04T11:58:30.146Z,16.80
2019-02-04T12:01:00.668Z,16.30
2019-02-04T12:03:31.117Z,14.50
2019-02-04T12:06:01.567Z,15.87
2019-02-04T12:08:33.042Z,15.03
2019-02-04T12:11:13.274Z,15.33
2019-02-04T12:13:44.771Z,15.30
2019-02-04T12:16:15.242Z,14.60
2019-02-04T12:18:46.370Z,14.27
2019-02-04T12:21:21.459Z,14.73
2019-02-04T12:23:49.886Z,9.67
2019-02-04T12:26:20.365Z,15.00
2019-02-04T12:28:50.851Z,15.87
2019-02-04T12:31:21.771Z,14.37
2019-02-04T12:33:52.379Z,13.83
2019-02-04T12:36:23.183Z,14.90
2019-02-04T12:38:53.625Z,14.63
2019-02-04T12:41:24.067Z,14.10
2019-02-04T12:43:54.711Z,14.30
2019-02-04T12:46:25.154Z,14.70
2019-02-04T12:48:55.939Z,13.87
2019-02-04T12:51:33.738Z,13.53
2019-02-04T12:53:59.051Z,12.67
2019-02-04T12:56:29.505Z,15.23
2019-02-04T12:59:00.356Z,12.83
2019-02-04T13:01:30.810Z,13.80
2019-02-04T13:04:01.255Z,13.10
2019-02-04T13:06:32.679Z,12.50
2019-02-04T13:09:03.312Z,12.70
2019-02-04T13:11:34.514Z,11.33
2019-02-04T13:14:05.693Z,12.07
2019-02-04T13:16:36.474Z,11.67
2019-02-04T13:19:06.919Z,13.00
2019-02-04T13:21:45.206Z,11.43
2019-02-04T13:24:09.929Z,11.77
2019-02-04T13:26:40.381Z,12.07
2019-02-04T13:29:10.886Z,13.70
2019-02-04T13:31:41.336Z,11.37
2019-02-04T13:34:11.877Z,10.97
2019-02-04T13:36:42.366Z,9.77
2019-02-04T13:39:12.815Z,14.03
2019-02-04T13:41:43.258Z,9.50
2019-02-04T13:44:13.749Z,9.80
2019-02-04T13:46:44.192Z,9.90
2019-02-04T13:49:14.628Z,9.87
2019-02-04T13:51:56.850Z,11.90
2019-02-04T13:54:17.659Z,10.07
2019-02-04T13:56:48.096Z,9.80
2019-02-04T13:59:18.576Z,9.77
2019-02-04T14:01:49.385Z,10.13
2019-02-04T14:04:19.829Z,10.67
2019-02-04T14:06:50.622Z,9.00
2019-02-04T14:09:21.450Z,10.23
2019-02-04T14:11:51.899Z,10.30
2019-02-04T14:14:22.363Z,8.70
2019-02-04T14:16:53.040Z,9.40
2019-02-04T14:19:23.527Z,9.40
2019-02-04T14:21:53.964Z,9.10
2019-02-04T14:24:24.403Z,9.37
2019-02-04T14:26:55.171Z,9.40
2019-02-04T14:29:26.004Z,10.13
2019-02-04T14:31:56.867Z,8.57
2019-02-04T14:34:27.301Z,8.60
2019-02-04T14:36:57.746Z,8.93
2019-02-04T14:39:29.213Z,8.87
2019-02-04T14:42:00.716Z,9.13
2019-02-04T14:44:42.755Z,8.67
2019-02-04T14:47:36.837Z,8.60
2019-02-04T14:50:27.455Z,7.93
2019-02-04T14:53:50.821Z,8.67
2019-02-04T14:56:58.002Z,8.37
2019-02-04T14:59:49.952Z,8.50
2019-02-04T15:02:50.478Z,8.07
2019-02-04T15:06:06.602Z,8.67
2019-02-04T15:09:27.274Z,7.80
2019-02-04T15:12:39.965Z,7.17
2019-02-04T15:15:25.031Z,8.47
2019-02-04T15:18:16.079Z,7.87
2019-02-04T15:21:39.120Z,9.10
2019-02-04T15:24:17.255Z,7.30
2019-02-04T15:27:13.474Z,7.73
2019-02-04T15:30:14.353Z,6.80
2019-02-04T15:33:22.852Z,7.20
2019-02-04T15:36:17.823Z,7.03
2019-02-04T15:39:19.173Z,6.93
2019-02-04T15:42:32.286Z,6.77
2019-02-04T15:45:29.625Z,6.47
2019-02-04T15:48:20.160Z,6.63
2019-02-04T15:51:08.676Z,6.40
2019-02-04T15:53:39.119Z,6.53
2019-02-04T15:56:10.227Z,7.17
2019-02-04T15:58:40.684Z,6.80
2019-02-04T16:01:11.123Z,7.50
2019-02-04T16:03:41.606Z,7.20
2019-02-04T16:06:12.063Z,7.23
2019-02-04T16:08:42.590Z,7.57
2019-02-04T16:11:13.438Z,7.83
2019-02-04T16:13:43.998Z,7.20
2019-02-04T16:16:14.434Z,7.40
2019-02-04T16:18:44.895Z,7.17
2019-02-04T16:21:15.329Z,7.53
2019-02-04T16:23:46.085Z,6.83
2019-02-04T16:26:16.521Z,8.27
2019-02-04T16:28:46.992Z,7.17
2019-02-04T16:31:17.452Z,7.80
2019-02-04T16:33:47.909Z,7.30
2019-02-04T16:36:18.346Z,7.53
2019-02-04T16:38:49.104Z,7.83
2019-02-04T16:41:20.272Z,7.37
2019-02-04T16:43:50.722Z,7.47
2019-02-04T16:46:21.530Z,8.13
2019-02-04T16:48:51.991Z,8.37
2019-02-04T16:51:22.613Z,7.83
2019-02-04T16:53:53.109Z,8.10
2019-02-04T16:56:23.546Z,8.17
2019-02-04T16:58:53.997Z,7.57
2019-02-04T17:01:24.834Z,8.97
2019-02-04T17:03:55.979Z,8.10
2019-02-04T17:06:26.432Z,8.23
2019-02-04T17:08:56.929Z,9.30
2019-02-04T17:11:28.562Z,8.57
2019-02-04T17:13:58.989Z,8.67
2019-02-04T17:16:29.866Z,8.40
2019-02-04T17:19:00.345Z,8.60
2019-02-04T17:21:30.873Z,9.07
2019-02-04T17:24:01.664Z,8.20
2019-02-04T17:26:32.096Z,8.93
2019-02-04T17:29:03.532Z,8.63
2019-02-04T17:31:35.499Z,8.87
2019-02-04T17:34:06.113Z,8.90
2019-02-04T17:36:37.335Z,7.87
2019-02-04T17:39:09.353Z,8.00
2019-02-04T17:41:39.901Z,9.17
2019-02-04T17:44:10.547Z,8.10
2019-02-04T17:46:41.782Z,8.63
2019-02-04T17:49:12.217Z,7.57
2019-02-04T17:51:43.048Z,7.77
2019-02-04T17:54:13.531Z,7.07
2019-02-04T17:56:44.361Z,7.83
2019-02-04T17:59:14.838Z,7.57
2019-02-04T18:01:45.611Z,6.77
2019-02-04T18:04:16.375Z,7.60
2019-02-04T18:06:46.814Z,7.60
2019-02-04T18:09:17.301Z,7.47
2019-02-04T18:11:47.812Z,6.97
2019-02-04T18:14:18.270Z,7.40
2019-02-04T18:16:48.765Z,6.97
2019-02-04T18:19:19.214Z,7.20
2019-02-04T18:21:49.641Z,7.40
2019-02-04T18:24:20.706Z,7.87
2019-02-04T18:26:51.262Z,6.70
2019-02-04T18:29:21.692Z,7.23
2019-02-04T18:31:52.475Z,6.50
2019-02-04T18:34:22.907Z,6.87
2019-02-04T18:36:53.749Z,7.27
2019-02-04T18:39:24.233Z,6.57
2019-02-04T18:41:55.675Z,7.33
2019-02-04T18:44:26.204Z,6.57
2019-02-04T18:46:56.990Z,7.40
2019-02-04T18:49:27.439Z,7.40
2019-02-04T18:51:57.891Z,6.77
2019-02-04T18:54:28.681Z,8.03
2019-02-04T18:56:59.140Z,7.40
2019-02-04T18:59:29.572Z,7.40
2019-02-04T19:02:00.324Z,7.70
2019-02-04T19:04:32.784Z,7.37
2019-02-04T19:07:03.396Z,8.27
2019-02-04T19:09:34.846Z,8.03
2019-02-04T19:12:05.425Z,8.30
2019-02-04T19:14:37.418Z,9.37
2019-02-04T19:17:07.905Z,8.50
2019-02-04T19:19:39.037Z,8.63
2019-02-04T19:22:10.718Z,9.70
2019-02-04T19:24:42.184Z,8.70
2019-02-04T19:27:14.238Z,7.90
2019-02-04T19:29:45.047Z,8.50
2019-02-04T19:32:16.550Z,8.77
2019-02-04T19:34:46.994Z,9.20
2019-02-04T19:37:19.257Z,9.13
2019-02-04T19:39:49.926Z,8.80
2019-02-04T19:42:20.901Z,9.23
2019-02-04T19:44:54.177Z,9.20
2019-02-04T19:47:24.983Z,8.20
2019-02-04T19:49:55.793Z,8.33
2019-02-04T19:52:26.891Z,7.90
2019-02-04T19:54:57.326Z,9.47
2019-02-04T19:57:28.033Z,9.90
2019-02-04T19:59:58.542Z,8.70
2019-02-04T20:02:29.343Z,9.30
2019-02-04T20:05:00.374Z,8.60
2019-02-04T20:07:32.657Z,9.10
2019-02-04T20:10:06.415Z,9.93
2019-02-04T20:12:37.198Z,10.37
2019-02-04T20:15:10.539Z,9.53
2019-02-04T20:17:41.307Z,9.67
2019-02-04T20:20:11.972Z,8.13
2019-02-04T20:22:44.139Z,9.57
2019-02-04T20:25:17.391Z,9.90
2019-02-04T20:27:47.859Z,9.50
2019-02-04T20:30:21.366Z,9.00
2019-02-04T20:32:51.899Z,8.73
2019-02-04T20:35:22.326Z,8.87
2019-02-04T20:37:53.165Z,8.77
2019-02-04T20:40:23.655Z,9.17
2019-02-04T20:42:54.090Z,9.80
2019-02-04T20:45:25.345Z,8.47
2019-02-04T20:47:55.829Z,8.50
2019-02-04T20:50:28.790Z,7.40
2019-02-04T20:52:59.454Z,8.77
2019-02-04T20:55:30.200Z,8.90
2019-02-04T20:58:01.302Z,8.47
2019-02-04T21:00:31.886Z,8.33
2019-02-04T21:03:02.469Z,8.97
2019-02-04T21:05:32.968Z,8.93
2019-02-04T21:08:03.446Z,8.13
2019-02-04T21:10:33.911Z,9.33
2019-02-04T21:13:04.810Z,8.60
2019-02-04T21:15:35.580Z,7.97
2019-02-04T21:18:06.898Z,8.40
2019-02-04T21:20:37.444Z,7.77
2019-02-04T21:23:07.891Z,8.47
2019-02-04T21:25:38.546Z,8.33
2019-02-04T21:28:09.044Z,7.97
2019-02-04T21:30:41.804Z,7.70
2019-02-04T21:33:12.274Z,7.93
2019-02-04T21:35:43.525Z,8.07
2019-02-04T21:38:14.422Z,7.60
2019-02-04T21:40:44.933Z,7.60
2019-02-04T21:43:15.527Z,7.03
2019-02-04T21:45:45.951Z,7.10
2019-02-04T21:48:16.890Z,6.97
2019-02-04T21:50:47.779Z,6.77
2019-02-04T21:53:19.413Z,7.20
2019-02-04T21:55:51.063Z,7.40
2019-02-04T21:58:21.851Z,7.00
2019-02-04T22:00:52.320Z,7.43
2019-02-04T22:03:23.126Z,9.40
2019-02-04T22:05:53.608Z,7.77
2019-02-04T22:08:24.046Z,7.90
2019-02-04T22:10:54.874Z,7.43
2019-02-04T22:13:25.332Z,7.30
2019-02-04T22:15:55.836Z,6.30
2019-02-04T22:18:26.627Z,6.93
2019-02-04T22:20:57.315Z,7.20
2019-02-04T22:23:27.751Z,7.37
2019-02-04T22:25:58.938Z,7.53
2019-02-04T22:28:29.378Z,7.00
2019-02-04T22:31:00.241Z,6.50
2019-02-04T22:33:31.367Z,6.40
2019-02-04T22:36:01.807Z,7.63
2019-02-04T22:38:32.261Z,7.20
2019-02-04T22:41:03.594Z,6.57
2019-02-04T22:43:34.072Z,6.57
2019-02-04T22:46:05.084Z,6.87
2019-02-04T22:48:35.786Z,6.90
2019-02-04T22:51:06.346Z,6.47
2019-02-04T22:53:36.779Z,6.77
2019-02-04T22:56:07.276Z,6.20
2019-02-04T22:58:38.104Z,6.30
2019-02-04T23:01:22.361Z,6.20
2019-02-04T23:03:53.184Z,6.83
2019-02-04T23:06:23.711Z,6.70
2019-02-04T23:08:54.664Z,6.20
2019-02-04T23:11:25.092Z,6.13
2019-02-04T23:13:55.573Z,6.40
2019-02-04T23:16:26.014Z,6.60
2019-02-04T23:18:56.475Z,7.40
2019-02-04T23:21:26.937Z,6.53
2019-02-04T23:23:57.656Z,7.07
2019-02-04T23:26:28.153Z,6.93
2019-02-04T23:29:00.284Z,6.70
2019-02-04T23:31:30.713Z,6.47
2019-02-04T23:34:01.174Z,5.90
2019-02-04T23:36:31.981Z,6.30
2019-02-04T23:39:03.708Z,5.73
2019-02-04T23:41:34.141Z,7.10
2019-02-04T23:44:05.121Z,6.90
2019-02-04T23:46:35.576Z,6.30
2019-02-04T23:49:06.421Z,6.90
2019-02-04T23:51:37.312Z,6.63
2019-02-04T23:54:08.204Z,6.83
2019-02-04T23:56:38.634Z,6.83
2019-02-04T23:59:09.092Z,7.57
